Time;durP1;ratioP1;P1;durP2;ratioP2;P2;SDS_P1;SDS_P2;PMS_P1;PMS_P2;Temp;Humidity;BMP_temperature;BMP_pressure;BME280_temperature;BME280_humidity;BME280_pressure;Samples;Min_cycle;Max_cycle;Signal;HPM_P1;HPM_P2
2023/06/22 00:00:42;;;;;;;1.00;0.70;;;24.80;73.20;;;;;;5042399;28;20188;-81
2023/06/22 00:03:10;;;;;;;0.68;0.65;;;24.80;73.30;;;;;;5058307;27;20196;-82
2023/06/22 00:05:39;;;;;;;0.60;0.55;;;24.80;73.20;;;;;;5027686;28;20280;-81
2023/06/22 00:08:07;;;;;;;1.73;1.30;;;24.70;73.40;;;;;;5057332;27;20310;-83
2023/06/22 00:10:36;;;;;;;0.40;0.40;;;24.80;73.60;;;;;;5049188;27;20197;-82
2023/06/22 00:13:04;;;;;;;0.55;0.55;;;24.70;73.50;;;;;;5034539;28;20200;-81
2023/06/22 00:15:34;;;;;;;1.65;1.02;;;24.70;73.50;;;;;;5034260;28;20199;-82
2023/06/22 00:18:02;;;;;;;1.15;0.88;;;24.70;73.50;;;;;;5097929;27;20198;-82
2023/06/22 00:20:32;;;;;;;1.27;1.02;;;24.60;73.60;;;;;;5056551;27;20244;-82
2023/06/22 00:23:01;;;;;;;0.82;0.55;;;24.60;73.70;;;;;;5060983;27;20215;-82
2023/06/22 00:25:29;;;;;;;0.40;0.40;;;24.60;73.90;;;;;;5058719;28;20243;-83
2023/06/22 00:27:58;;;;;;;1.58;0.60;;;24.60;74.00;;;;;;5056785;28;20265;-83
2023/06/22 00:30:26;;;;;;;1.02;0.75;;;24.50;73.90;;;;;;5050225;28;20211;-82
2023/06/22 00:32:56;;;;;;;0.47;0.47;;;24.50;73.90;;;;;;5052119;27;20719;-81
2023/06/22 00:35:28;;;;;;;0.65;0.55;;;24.50;73.90;;;;;;5061620;27;20670;-81
2023/06/22 00:38:00;;;;;;;0.47;0.47;;;24.50;74.10;;;;;;5068197;28;20183;-82
2023/06/22 00:40:29;;;;;;;1.02;0.85;;;24.50;74.50;;;;;;5060697;27;20607;-81
2023/06/22 00:42:58;;;;;;;1.58;1.48;;;24.40;74.50;;;;;;5057811;28;20206;-81
2023/06/22 00:45:27;;;;;;;1.20;0.98;;;24.40;74.50;;;;;;5052446;28;21419;-81
2023/06/22 00:47:58;;;;;;;0.40;0.40;;;24.40;74.70;;;;;;5060578;27;20874;-81
2023/06/22 00:50:33;;;;;;;0.60;0.60;;;24.30;74.70;;;;;;5057713;27;20348;-82
2023/06/22 00:53:08;;;;;;;2.70;1.10;;;24.30;74.70;;;;;;5062654;28;20193;-83
2023/06/22 00:55:43;;;;;;;0.63;0.52;;;24.30;74.90;;;;;;5056412;28;20677;-82
2023/06/22 00:58:12;;;;;;;3.20;0.85;;;24.30;75.20;;;;;;5047502;27;20191;-80
2023/06/22 01:00:42;;;;;;;3.83;2.13;;;24.20;75.30;;;;;;5052632;28;20275;-82
2023/06/22 01:03:12;;;;;;;1.02;0.70;;;24.20;75.70;;;;;;5041883;27;20183;-83
2023/06/22 01:05:41;;;;;;;1.00;0.90;;;24.20;75.80;;;;;;5040084;27;20231;-82
2023/06/22 01:08:27;;;;;;;0.88;0.80;;;24.10;75.80;;;;;;5043319;28;20225;-82
2023/06/22 01:11:02;;;;;;;5.20;1.00;;;24.10;75.80;;;;;;5043726;27;20189;-80
2023/06/22 01:13:38;;;;;;;1.02;0.82;;;24.10;75.90;;;;;;5127769;27;20252;-82
2023/06/22 01:16:10;;;;;;;1.25;1.15;;;24.00;76.10;;;;;;5045640;27;20663;-81
2023/06/22 01:18:43;;;;;;;2.75;1.23;;;24.00;76.20;;;;;;5033384;28;20195;-82
2023/06/22 01:21:17;;;;;;;1.80;1.00;;;24.00;76.40;;;;;;5039213;28;20202;-81
2023/06/22 01:24:02;;;;;;;0.75;0.55;;;24.00;76.90;;;;;;5030316;28;20563;-81
2023/06/22 01:26:39;;;;;;;0.93;0.68;;;23.90;76.80;;;;;;5033269;28;20212;-81
2023/06/22 01:29:13;;;;;;;1.45;0.55;;;23.90;76.80;;;;;;5045038;28;20530;-82
2023/06/22 01:31:43;;;;;;;1.30;1.02;;;23.90;76.90;;;;;;5056638;27;20218;-81
2023/06/22 01:34:13;;;;;;;1.08;0.85;;;23.90;77.00;;;;;;5052681;27;20247;-81
2023/06/22 01:36:42;;;;;;;0.90;0.50;;;23.90;76.90;;;;;;5037409;28;20200;-81
2023/06/22 01:39:11;;;;;;;1.42;0.90;;;23.80;76.90;;;;;;5029118;28;20260;-83
2023/06/22 01:41:41;;;;;;;0.80;0.68;;;23.80;76.90;;;;;;5030981;28;20248;-82
2023/06/22 01:44:13;;;;;;;1.42;0.70;;;23.80;77.10;;;;;;5045758;28;20278;-82
2023/06/22 01:46:42;;;;;;;0.40;0.40;;;23.70;77.50;;;;;;5041817;27;20207;-82
2023/06/22 01:49:11;;;;;;;1.08;0.82;;;23.70;77.70;;;;;;5049347;28;20674;-83
2023/06/22 01:51:39;;;;;;;0.65;0.60;;;23.70;78.00;;;;;;5038536;27;20582;-82
2023/06/22 01:54:09;;;;;;;1.20;0.85;;;23.70;78.10;;;;;;5047680;28;20200;-83
2023/06/22 01:56:37;;;;;;;2.42;0.68;;;23.60;78.90;;;;;;5043682;28;20198;-82
2023/06/22 01:59:15;;;;;;;7.68;0.68;;;23.60;78.30;;;;;;5064302;28;20219;-82
2023/06/22 02:01:47;;;;;;;0.63;0.57;;;23.60;78.40;;;;;;5061740;27;20196;-83
2023/06/22 02:04:22;;;;;;;0.30;0.30;;;23.60;78.50;;;;;;5040283;28;20282;-83
2023/06/22 02:06:55;;;;;;;0.30;0.30;;;23.60;78.60;;;;;;5041425;27;20206;-84
2023/06/22 02:09:26;;;;;;;0.95;0.73;;;23.60;78.90;;;;;;5036164;28;20302;-82
2023/06/22 02:11:56;;;;;;;1.00;0.82;;;23.50;78.80;;;;;;5040047;28;20652;-83
2023/06/22 02:14:27;;;;;;;2.92;0.80;;;23.60;79.30;;;;;;5046169;28;20720;-83
2023/06/22 02:16:58;;;;;;;2.33;1.08;;;23.50;79.30;;;;;;5072295;27;20188;-82
2023/06/22 02:19:33;;;;;;;0.50;0.50;;;23.50;79.50;;;;;;5029471;28;20196;-83
2023/06/22 02:22:01;;;;;;;4.65;1.23;;;23.50;79.50;;;;;;5047459;28;20198;-83
2023/06/22 02:24:31;;;;;;;1.17;1.00;;;23.50;79.70;;;;;;5049476;27;20246;-81
2023/06/22 02:27:00;;;;;;;1.20;1.05;;;23.50;79.90;;;;;;5036715;28;20210;-83
2023/06/22 02:29:30;;;;;;;0.55;0.55;;;23.40;80.50;;;;;;5029456;28;20198;-82
2023/06/22 02:31:58;;;;;;;0.98;0.95;;;23.40;80.80;;;;;;5056642;27;20648;-81
2023/06/22 02:34:26;;;;;;;1.83;1.55;;;23.40;81.00;;;;;;5028655;28;20576;-81
2023/06/22 02:36:55;;;;;;;5.55;0.85;;;23.40;80.80;;;;;;5037624;28;20214;-83
2023/06/22 02:39:24;;;;;;;0.73;0.60;;;23.30;80.90;;;;;;5028552;28;20636;-83
2023/06/22 02:41:54;;;;;;;1.10;0.75;;;23.30;80.90;;;;;;5036850;27;20212;-81
2023/06/22 02:44:22;;;;;;;1.23;0.85;;;23.30;80.80;;;;;;5029781;28;20213;-81
2023/06/22 02:46:52;;;;;;;0.70;0.47;;;23.30;80.90;;;;;;5084398;27;20362;-81
2023/06/22 02:49:20;;;;;;;0.60;0.60;;;23.30;80.90;;;;;;5071551;27;20192;-82
2023/06/22 02:51:50;;;;;;;6.50;0.93;;;23.30;81.20;;;;;;5040408;28;20264;-81
2023/06/22 02:54:18;;;;;;;1.38;1.27;;;23.30;81.10;;;;;;5048176;28;20278;-82
2023/06/22 02:56:47;;;;;;;1.17;1.08;;;23.30;81.10;;;;;;5036140;28;20659;-81
2023/06/22 02:59:16;;;;;;;1.52;1.17;;;23.30;81.20;;;;;;5053775;27;20558;-82
2023/06/22 03:01:44;;;;;;;0.63;0.63;;;23.30;81.20;;;;;;5040213;27;20674;-82
2023/06/22 03:04:15;;;;;;;2.10;1.50;;;23.30;81.40;;;;;;5129205;27;20241;-82
2023/06/22 03:06:43;;;;;;;1.27;0.57;;;23.30;81.60;;;;;;5042517;27;20215;-82
2023/06/22 03:09:12;;;;;;;0.75;0.52;;;23.30;82.50;;;;;;5119306;27;20200;-81
2023/06/22 03:11:40;;;;;;;1.80;1.00;;;23.30;81.90;;;;;;5038177;28;20649;-82
2023/06/22 03:14:09;;;;;;;4.00;1.70;;;23.30;82.10;;;;;;5053398;28;20226;-81
2023/06/22 03:16:37;;;;;;;1.27;0.73;;;23.20;82.30;;;;;;5053842;27;20200;-83
2023/06/22 03:19:05;;;;;;;1.02;0.70;;;23.20;82.30;;;;;;5029658;27;20219;-82
2023/06/22 03:21:35;;;;;;;0.63;0.63;;;23.20;82.30;;;;;;5059412;27;20203;-82
2023/06/22 03:24:04;;;;;;;0.95;0.95;;;23.30;82.70;;;;;;5031124;28;20203;-82
2023/06/22 03:26:32;;;;;;;1.48;1.33;;;23.20;83.00;;;;;;5040216;28;20218;-83
2023/06/22 03:29:01;;;;;;;1.65;0.93;;;23.30;83.50;;;;;;5048032;28;20254;-82
2023/06/22 03:31:29;;;;;;;1.70;0.88;;;23.20;83.30;;;;;;5028973;28;20260;-82
2023/06/22 03:33:57;;;;;;;0.57;0.57;;;23.30;83.40;;;;;;5040854;27;20590;-82
2023/06/22 03:36:26;;;;;;;1.23;0.80;;;23.30;83.40;;;;;;5066655;27;20214;-82
2023/06/22 03:38:57;;;;;;;1.50;0.95;;;23.30;83.40;;;;;;5028005;28;20203;-81
2023/06/22 03:41:25;;;;;;;1.33;1.05;;;23.30;83.40;;;;;;5028178;28;20196;-82
2023/06/22 03:43:53;;;;;;;1.40;1.02;;;23.30;83.80;;;;;;5044268;28;22719;-82
2023/06/22 03:46:22;;;;;;;1.55;1.10;;;23.30;83.80;;;;;;5033946;27;20212;-83
2023/06/22 03:48:50;;;;;;;1.27;1.17;;;23.30;83.80;;;;;;5043924;27;20215;-83
2023/06/22 03:51:18;;;;;;;0.60;0.60;;;23.40;84.30;;;;;;5045201;27;20200;-83
2023/06/22 03:53:48;;;;;;;3.92;1.10;;;23.40;84.10;;;;;;5028508;28;20199;-82
2023/06/22 03:56:20;;;;;;;1.40;0.98;;;23.50;84.30;;;;;;5033188;28;20191;-83
2023/06/22 03:58:48;;;;;;;1.98;1.13;;;23.50;84.40;;;;;;5050529;28;20196;-82
2023/06/22 04:01:18;;;;;;;2.10;1.30;;;23.50;84.40;;;;;;5031422;28;20663;-83
2023/06/22 04:03:48;;;;;;;2.30;0.75;;;23.50;84.40;;;;;;5049014;28;20200;-82
2023/06/22 04:06:17;;;;;;;0.57;0.57;;;23.50;84.10;;;;;;5042252;27;20233;-81
2023/06/22 04:08:50;;;;;;;1.20;1.00;;;23.60;84.50;;;;;;5058476;28;20273;-83
2023/06/22 04:11:21;;;;;;;2.40;1.65;;;23.60;84.90;;;;;;5040203;28;20198;-82
2023/06/22 04:13:51;;;;;;;1.40;1.30;;;23.60;84.90;;;;;;5047289;28;20560;-82
2023/06/22 04:16:19;;;;;;;2.15;1.25;;;23.70;84.90;;;;;;5044330;27;20202;-82
2023/06/22 04:18:48;;;;;;;1.85;1.00;;;23.70;84.60;;;;;;5050598;27;20209;-82
2023/06/22 04:21:16;;;;;;;2.03;1.63;;;23.80;85.00;;;;;;5060392;27;20194;-81
2023/06/22 04:23:45;;;;;;;0.85;0.85;;;23.80;85.50;;;;;;5090524;27;20198;-81
2023/06/22 04:26:14;;;;;;;1.75;0.55;;;23.80;85.10;;;;;;5055250;27;20207;-81
2023/06/22 04:28:51;;;;;;;1.27;0.85;;;23.90;84.80;;;;;;5041280;28;20744;-81
2023/06/22 04:31:19;;;;;;;1.65;0.70;;;24.00;84.70;;;;;;5048814;28;20194;-81
2023/06/22 04:33:51;;;;;;;1.17;0.68;;;24.00;84.40;;;;;;5057866;27;20245;-81
2023/06/22 04:36:20;;;;;;;1.40;0.55;;;24.10;84.40;;;;;;5051554;27;20283;-81
2023/06/22 04:38:52;;;;;;;1.15;1.05;;;24.10;84.30;;;;;;5029273;28;20195;-81
2023/06/22 04:41:23;;;;;;;1.05;0.63;;;24.20;84.50;;;;;;5033504;27;20783;-81
2023/06/22 04:43:54;;;;;;;1.58;1.13;;;24.20;84.70;;;;;;5046059;28;20187;-81
2023/06/22 04:46:22;;;;;;;2.05;1.30;;;24.20;84.40;;;;;;5039092;28;20200;-83
2023/06/22 04:48:51;;;;;;;1.48;0.68;;;24.30;84.20;;;;;;5044925;27;20226;-83
2023/06/22 04:51:21;;;;;;;0.98;0.95;;;24.30;84.10;;;;;;5047000;28;20191;-83
2023/06/22 04:53:50;;;;;;;0.40;0.40;;;24.40;84.10;;;;;;5034496;28;20805;-82
2023/06/22 04:56:21;;;;;;;0.32;0.32;;;24.50;84.10;;;;;;5028480;28;20644;-83
2023/06/22 04:58:51;;;;;;;0.70;0.70;;;24.50;84.10;;;;;;5047698;27;20191;-81
2023/06/22 05:01:22;;;;;;;0.93;0.85;;;24.60;84.00;;;;;;5027480;28;20618;-82
2023/06/22 05:03:50;;;;;;;1.38;0.85;;;24.60;84.00;;;;;;5072218;27;20260;-82
2023/06/22 05:06:18;;;;;;;5.75;1.35;;;24.70;84.10;;;;;;5032311;28;20230;-83
2023/06/22 05:08:47;;;;;;;0.63;0.63;;;24.80;83.90;;;;;;5035772;28;20223;-83
2023/06/22 05:11:15;;;;;;;0.88;0.82;;;24.90;83.80;;;;;;5073771;27;20198;-81
2023/06/22 05:13:43;;;;;;;1.02;0.82;;;25.00;83.30;;;;;;5051107;28;20650;-82
2023/06/22 05:16:12;;;;;;;0.43;0.43;;;25.00;82.70;;;;;;5057253;27;20615;-81
2023/06/22 05:18:43;;;;;;;5.20;1.25;;;25.10;82.50;;;;;;5043229;27;20195;-81
2023/06/22 05:21:11;;;;;;;0.55;0.55;;;25.20;82.10;;;;;;5050172;27;20248;-83
2023/06/22 05:23:40;;;;;;;5.57;1.02;;;25.30;82.00;;;;;;5042728;27;20191;-83
2023/06/22 05:26:09;;;;;;;1.55;0.90;;;25.40;81.20;;;;;;5033956;28;20242;-82
2023/06/22 05:28:37;;;;;;;1.75;0.60;;;25.40;80.90;;;;;;5041247;27;20778;-83
2023/06/22 05:31:06;;;;;;;1.20;0.90;;;25.50;79.90;;;;;;5054631;27;20206;-84
2023/06/22 05:33:34;;;;;;;1.98;1.33;;;25.60;79.40;;;;;;5052791;28;20201;-84
2023/06/22 05:36:05;;;;;;;1.95;1.00;;;25.70;78.70;;;;;;5042368;28;20196;-81
2023/06/22 05:38:33;;;;;;;1.15;0.88;;;25.70;78.40;;;;;;5044810;28;20202;-82
2023/06/22 05:41:02;;;;;;;1.23;1.02;;;25.80;78.40;;;;;;5039965;28;20215;-82
2023/06/22 05:43:30;;;;;;;2.70;0.80;;;25.90;78.00;;;;;;5049475;27;20195;-82
2023/06/22 05:45:59;;;;;;;1.20;1.10;;;26.00;78.00;;;;;;5048216;27;20196;-83
2023/06/22 05:48:27;;;;;;;1.48;1.27;;;26.10;77.70;;;;;;5047018;27;20219;-82
2023/06/22 05:50:56;;;;;;;2.00;1.00;;;26.10;76.00;;;;;;5039543;28;20192;-82
2023/06/22 05:53:26;;;;;;;0.85;0.85;;;26.20;76.00;;;;;;5048004;28;20666;-84
2023/06/22 05:55:54;;;;;;;1.20;0.70;;;26.30;76.10;;;;;;5043932;27;20244;-82
2023/06/22 05:58:23;;;;;;;0.95;0.70;;;26.40;75.60;;;;;;5058883;27;20293;-83
2023/06/22 06:00:51;;;;;;;1.48;1.33;;;26.50;75.80;;;;;;5059847;27;20203;-85
2023/06/22 06:03:19;;;;;;;1.48;1.05;;;26.50;75.10;;;;;;5038100;28;20312;-84
2023/06/22 06:05:48;;;;;;;1.13;0.77;;;26.60;74.20;;;;;;5039408;28;20233;-83
2023/06/22 06:08:16;;;;;;;1.40;0.93;;;26.70;72.90;;;;;;5053636;27;20219;-83
2023/06/22 06:10:46;;;;;;;1.08;0.57;;;26.70;72.90;;;;;;5038086;28;20233;-82
2023/06/22 06:13:14;;;;;;;1.02;0.93;;;26.80;73.10;;;;;;5087637;27;20670;-82
2023/06/22 06:15:43;;;;;;;1.65;0.82;;;26.90;74.00;;;;;;5052692;27;20196;-83
2023/06/22 06:18:11;;;;;;;0.60;0.60;;;27.00;72.70;;;;;;5041560;28;20191;-82
2023/06/22 06:20:40;;;;;;;0.70;0.70;;;27.10;72.10;;;;;;5035889;28;20281;-82
2023/06/22 06:23:08;;;;;;;0.52;0.50;;;27.10;72.10;;;;;;5039894;28;20196;-82
2023/06/22 06:25:39;;;;;;;0.90;0.63;;;27.20;71.40;;;;;;5051679;27;20195;-82
2023/06/22 06:28:09;;;;;;;1.00;0.90;;;27.20;71.00;;;;;;5029148;28;20195;-83
2023/06/22 06:30:37;;;;;;;2.63;0.73;;;27.30;70.40;;;;;;5028427;28;20202;-83
2023/06/22 06:33:08;;;;;;;1.27;1.15;;;27.30;70.20;;;;;;5046390;28;20276;-82
2023/06/22 06:35:37;;;;;;;1.30;0.75;;;27.40;70.20;;;;;;5029974;27;20710;-84
2023/06/22 06:38:05;;;;;;;0.77;0.77;;;27.50;70.30;;;;;;5030918;28;20636;-82
2023/06/22 06:40:34;;;;;;;0.82;0.60;;;27.60;70.50;;;;;;5045923;28;20277;-83
2023/06/22 06:43:02;;;;;;;2.15;1.33;;;27.70;70.40;;;;;;5029395;28;20196;-83
2023/06/22 06:45:34;;;;;;;0.70;0.70;;;27.80;69.90;;;;;;5043247;28;20203;-84
2023/06/22 06:48:03;;;;;;;0.88;0.75;;;27.80;69.80;;;;;;5030724;28;20198;-84
2023/06/22 06:50:31;;;;;;;1.20;0.85;;;27.90;68.50;;;;;;5033044;27;20228;-83
2023/06/22 06:53:00;;;;;;;1.75;1.15;;;27.90;68.90;;;;;;5056652;27;20272;-83
2023/06/22 06:55:32;;;;;;;1.25;0.60;;;28.00;68.60;;;;;;5033665;28;20196;-82
2023/06/22 06:58:01;;;;;;;1.20;0.85;;;28.10;68.20;;;;;;5031731;28;20331;-84
2023/06/22 07:00:31;;;;;;;1.67;1.25;;;28.10;68.00;;;;;;5045370;28;20200;-83
2023/06/22 07:03:03;;;;;;;0.75;0.70;;;28.20;67.90;;;;;;5041060;28;20192;-84
2023/06/22 07:05:32;;;;;;;2.67;0.93;;;28.20;67.50;;;;;;5029129;28;20230;-83
2023/06/22 07:08:00;;;;;;;2.13;1.02;;;28.30;66.60;;;;;;5035368;28;20242;-83
2023/06/22 07:10:30;;;;;;;0.77;0.55;;;28.30;67.00;;;;;;5036381;28;20220;-83
2023/06/22 07:12:58;;;;;;;1.58;1.15;;;28.40;67.30;;;;;;5037921;27;20191;-84
2023/06/22 07:15:28;;;;;;;1.10;0.80;;;28.40;67.20;;;;;;5081800;27;21056;-83
2023/06/22 07:17:58;;;;;;;0.80;0.77;;;28.50;66.90;;;;;;5037895;28;20199;-85
2023/06/22 07:20:27;;;;;;;0.75;0.65;;;28.50;66.80;;;;;;5031736;28;20211;-80
2023/06/22 07:22:55;;;;;;;4.65;1.95;;;28.60;66.70;;;;;;5035864;28;20199;-82
2023/06/22 07:25:28;;;;;;;1.52;1.30;;;28.60;66.30;;;;;;5035593;28;20190;-83
2023/06/22 07:28:01;;;;;;;3.47;1.48;;;28.70;66.10;;;;;;5032553;27;20194;-80
2023/06/22 07:30:32;;;;;;;12.18;4.95;;;28.70;66.00;;;;;;5045344;28;20662;-80
2023/06/22 07:33:06;;;;;;;3.25;1.80;;;28.70;65.90;;;;;;5041858;27;20282;-81
2023/06/22 07:35:34;;;;;;;2.47;1.65;;;28.70;66.00;;;;;;5050041;27;20184;-79
2023/06/22 07:38:03;;;;;;;3.55;1.45;;;28.80;66.00;;;;;;5035459;27;20192;-80
2023/06/22 07:40:35;;;;;;;2.10;0.68;;;28.90;66.20;;;;;;5042058;27;20191;-82
2023/06/22 07:43:04;;;;;;;2.05;1.45;;;28.80;65.80;;;;;;5042921;27;20195;-81
2023/06/22 07:45:34;;;;;;;0.73;0.52;;;28.90;65.60;;;;;;5032098;28;20270;-82
2023/06/22 07:48:05;;;;;;;1.17;1.05;;;28.90;65.50;;;;;;5033196;27;20202;-83
2023/06/22 07:50:33;;;;;;;0.90;0.70;;;28.90;65.80;;;;;;5056086;27;20584;-81
2023/06/22 07:53:02;;;;;;;1.00;0.80;;;28.90;65.80;;;;;;5049635;28;20644;-81
2023/06/22 07:55:30;;;;;;;1.40;1.13;;;28.90;65.20;;;;;;5062478;27;20602;-83
2023/06/22 07:57:59;;;;;;;3.30;1.58;;;29.00;65.50;;;;;;5045672;28;20203;-81
2023/06/22 08:00:27;;;;;;;0.73;0.65;;;29.00;64.70;;;;;;5034054;28;20196;-83
2023/06/22 08:02:56;;;;;;;1.80;1.25;;;29.00;65.90;;;;;;5038023;27;20194;-84
2023/06/22 08:05:27;;;;;;;1.25;1.15;;;29.10;65.30;;;;;;5046314;27;20234;-83
2023/06/22 08:07:57;;;;;;;0.68;0.60;;;29.10;65.30;;;;;;5046853;27;20187;-84
2023/06/22 08:10:26;;;;;;;1.15;0.95;;;29.20;65.20;;;;;;5064553;27;20223;-83
2023/06/22 08:12:54;;;;;;;4.78;1.17;;;29.20;65.80;;;;;;5046749;27;20190;-80
2023/06/22 08:15:23;;;;;;;1.85;1.02;;;29.20;65.00;;;;;;5056536;28;20188;-81
2023/06/22 08:17:52;;;;;;;1.65;0.77;;;29.30;65.20;;;;;;5031887;28;20282;-82
2023/06/22 08:20:21;;;;;;;0.95;0.80;;;29.30;64.80;;;;;;5042990;28;20208;-82
2023/06/22 08:22:51;;;;;;;1.42;0.77;;;29.30;64.40;;;;;;5034208;28;20662;-82
2023/06/22 08:25:19;;;;;;;1.35;1.20;;;29.40;64.70;;;;;;5027665;28;20207;-82
2023/06/22 08:27:48;;;;;;;2.05;1.20;;;29.40;65.10;;;;;;5046669;28;20195;-84
2023/06/22 08:30:18;;;;;;;1.55;1.45;;;29.40;65.10;;;;;;5049348;28;20588;-82
2023/06/22 08:32:46;;;;;;;1.40;0.68;;;29.50;64.60;;;;;;5046192;28;20252;-81
2023/06/22 08:35:15;;;;;;;2.53;0.63;;;29.50;64.60;;;;;;5039156;28;20665;-81
2023/06/22 08:37:45;;;;;;;1.65;0.98;;;29.50;64.00;;;;;;5027797;28;20211;-81
2023/06/22 08:40:15;;;;;;;0.75;0.70;;;29.60;63.70;;;;;;5045645;28;20194;-80
2023/06/22 08:42:43;;;;;;;0.93;0.68;;;29.60;63.60;;;;;;5039045;27;20196;-80
2023/06/22 08:45:12;;;;;;;2.42;1.35;;;29.60;63.40;;;;;;5048625;28;20191;-80
2023/06/22 08:47:42;;;;;;;2.78;1.25;;;29.60;63.40;;;;;;5027138;28;20720;-81
2023/06/22 08:50:11;;;;;;;2.08;1.23;;;29.70;63.10;;;;;;5046025;28;20221;-80
2023/06/22 08:52:42;;;;;;;1.02;0.68;;;29.70;62.60;;;;;;5054264;27;20229;-81
2023/06/22 08:55:11;;;;;;;1.90;0.98;;;29.80;62.70;;;;;;5030348;28;20188;-80
2023/06/22 08:57:41;;;;;;;0.80;0.80;;;29.80;61.60;;;;;;5033151;28;20192;-81
2023/06/22 09:00:16;;;;;;;1.52;1.17;;;29.80;61.20;;;;;;5033349;28;20202;-81
2023/06/22 09:02:44;;;;;;;1.48;0.80;;;29.80;61.30;;;;;;5049927;28;20190;-81
2023/06/22 09:05:14;;;;;;;1.33;0.95;;;29.80;61.50;;;;;;5039200;27;20629;-79
2023/06/22 09:07:43;;;;;;;0.40;0.40;;;29.90;61.80;;;;;;5036988;28;20220;-80
2023/06/22 09:10:11;;;;;;;2.08;1.10;;;29.90;62.00;;;;;;5044973;27;20739;-81
2023/06/22 09:12:42;;;;;;;0.88;0.85;;;30.00;62.40;;;;;;5046935;28;20194;-81
2023/06/22 09:15:11;;;;;;;2.55;1.23;;;30.10;62.40;;;;;;5086330;27;20188;-80
2023/06/22 09:17:43;;;;;;;0.60;0.55;;;30.10;62.40;;;;;;5075802;27;20190;-82
2023/06/22 09:20:12;;;;;;;1.83;1.55;;;30.10;61.50;;;;;;5068929;28;20218;-81
2023/06/22 09:22:41;;;;;;;1.77;1.45;;;30.20;61.60;;;;;;5047424;27;20202;-81
2023/06/22 09:25:10;;;;;;;1.45;1.02;;;30.20;61.30;;;;;;5048070;28;20223;-80
2023/06/22 09:27:38;;;;;;;0.60;0.60;;;30.30;61.60;;;;;;5070308;27;20549;-81
2023/06/22 09:30:09;;;;;;;1.70;1.45;;;30.30;61.40;;;;;;5085314;27;20220;-79
2023/06/22 09:32:38;;;;;;;1.05;0.95;;;30.40;61.50;;;;;;5050122;27;20211;-80
2023/06/22 09:35:08;;;;;;;1.55;1.05;;;30.40;60.90;;;;;;5036353;27;20214;-79
2023/06/22 09:37:38;;;;;;;1.33;1.15;;;30.40;60.20;;;;;;5044279;27;20184;-81
2023/06/22 09:40:11;;;;;;;1.52;1.02;;;30.50;60.30;;;;;;5035444;28;20245;-81
2023/06/22 09:42:40;;;;;;;1.27;1.15;;;30.50;60.30;;;;;;5047216;27;20644;-79
2023/06/22 09:45:10;;;;;;;0.63;0.60;;;30.60;59.70;;;;;;5036488;27;20191;-80
2023/06/22 09:47:39;;;;;;;1.38;0.57;;;30.60;59.70;;;;;;5054462;27;20208;-81
2023/06/22 09:50:08;;;;;;;1.70;1.33;;;30.70;59.80;;;;;;5039074;27;20226;-82
2023/06/22 09:52:37;;;;;;;2.15;0.90;;;30.70;59.60;;;;;;5038316;28;20200;-79
2023/06/22 09:55:09;;;;;;;0.70;0.60;;;30.80;59.60;;;;;;5039394;28;20272;-82
2023/06/22 09:57:37;;;;;;;1.55;1.10;;;30.80;59.60;;;;;;5035627;28;20192;-79
2023/06/22 10:00:10;;;;;;;1.08;1.00;;;30.90;59.70;;;;;;5036771;27;20205;-79
2023/06/22 10:02:40;;;;;;;0.82;0.70;;;31.00;60.00;;;;;;5043335;27;20188;-79
2023/06/22 10:05:09;;;;;;;0.50;0.45;;;31.00;59.70;;;;;;5054453;27;20223;-80
2023/06/22 10:07:42;;;;;;;1.13;0.75;;;31.10;59.80;;;;;;5039972;28;20192;-80
2023/06/22 10:10:11;;;;;;;0.70;0.70;;;31.20;59.80;;;;;;5037693;28;20287;-80
2023/06/22 10:12:44;;;;;;;2.80;1.45;;;31.20;59.70;;;;;;5037208;28;20449;-79
2023/06/22 10:15:12;;;;;;;0.98;0.80;;;31.30;59.50;;;;;;5052731;27;22194;-79
2023/06/22 10:17:42;;;;;;;1.35;1.08;;;31.40;59.70;;;;;;5029952;28;20245;-79
2023/06/22 10:20:12;;;;;;;0.77;0.70;;;31.40;59.70;;;;;;5032882;28;20246;-79
2023/06/22 10:22:41;;;;;;;1.50;0.70;;;31.60;59.50;;;;;;5095437;27;20724;-79
2023/06/22 10:25:10;;;;;;;1.40;0.82;;;31.60;59.00;;;;;;5030739;28;20219;-79
2023/06/22 10:27:40;;;;;;;1.58;0.75;;;31.70;58.60;;;;;;5050170;28;20584;-79
2023/06/22 10:30:10;;;;;;;1.88;0.90;;;31.70;58.30;;;;;;5097949;27;22192;-79
2023/06/22 10:32:39;;;;;;;0.90;0.82;;;31.70;58.10;;;;;;5038247;28;20290;-80
2023/06/22 10:35:10;;;;;;;1.20;0.88;;;31.80;58.10;;;;;;5057223;27;20632;-78
2023/06/22 10:37:38;;;;;;;0.85;0.80;;;31.80;58.10;;;;;;5042877;28;20191;-79
2023/06/22 10:40:09;;;;;;;2.15;1.15;;;31.80;57.80;;;;;;5098616;27;20210;-81
2023/06/22 10:42:37;;;;;;;0.73;0.63;;;31.80;57.70;;;;;;5035825;27;20567;-81
2023/06/22 10:45:06;;;;;;;1.33;1.05;;;31.80;57.10;;;;;;5051375;27;20204;-81
2023/06/22 10:47:36;;;;;;;0.50;0.50;;;31.90;57.60;;;;;;5048501;27;20203;-81
2023/06/22 10:50:07;;;;;;;1.88;0.90;;;31.90;57.70;;;;;;5059283;27;20226;-80
2023/06/22 10:52:37;;;;;;;1.55;1.17;;;32.00;57.30;;;;;;5093348;27;20199;-82
2023/06/22 10:55:06;;;;;;;1.25;1.15;;;32.00;57.10;;;;;;5058819;28;20210;-81
2023/06/22 10:57:34;;;;;;;1.77;1.00;;;32.10;56.70;;;;;;5082430;27;20210;-80
2023/06/22 11:00:05;;;;;;;1.60;0.70;;;32.10;56.90;;;;;;5062971;27;20194;-80
2023/06/22 11:02:33;;;;;;;1.23;0.90;;;32.20;56.70;;;;;;5048823;28;20206;-80
2023/06/22 11:05:02;;;;;;;1.35;0.90;;;32.10;56.80;;;;;;5050155;27;20236;-80
2023/06/22 11:07:31;;;;;;;1.55;0.77;;;32.20;57.10;;;;;;5046754;27;20196;-81
2023/06/22 11:10:00;;;;;;;1.70;1.50;;;32.20;56.80;;;;;;5066686;28;20571;-81
2023/06/22 11:12:29;;;;;;;1.38;0.73;;;32.20;56.70;;;;;;5043294;28;21212;-80
2023/06/22 11:14:57;;;;;;;1.92;1.02;;;32.30;56.30;;;;;;5054963;27;20218;-80
2023/06/22 11:17:27;;;;;;;1.98;1.20;;;32.40;55.90;;;;;;5032753;27;20245;-80
2023/06/22 11:19:55;;;;;;;1.27;1.10;;;32.40;55.80;;;;;;5031924;28;20281;-81
2023/06/22 11:22:23;;;;;;;3.28;1.70;;;32.40;56.00;;;;;;5045273;27;20203;-80
2023/06/22 11:24:53;;;;;;;1.95;1.48;;;32.30;55.30;;;;;;5052563;28;20222;-83
2023/06/22 11:27:25;;;;;;;1.85;1.00;;;32.30;55.40;;;;;;5027512;28;20207;-82
2023/06/22 11:29:56;;;;;;;1.20;0.95;;;32.20;55.40;;;;;;5062984;27;20207;-81
2023/06/22 11:32:24;;;;;;;1.25;0.98;;;32.20;55.70;;;;;;5049803;28;20222;-81
2023/06/22 11:34:53;;;;;;;2.38;1.38;;;32.20;55.70;;;;;;5062574;27;20190;-80
2023/06/22 11:37:21;;;;;;;1.75;0.77;;;32.10;55.90;;;;;;5044349;28;20287;-81
2023/06/22 11:39:50;;;;;;;0.65;0.65;;;32.20;56.20;;;;;;5038883;28;20199;-82
2023/06/22 11:42:34;;;;;;;0.80;0.80;;;32.30;56.10;;;;;;5052914;28;20208;-81
2023/06/22 11:45:04;;;;;;;0.82;0.80;;;32.20;56.00;;;;;;5042076;28;20233;-81
2023/06/22 11:47:33;;;;;;;3.15;1.17;;;32.20;56.10;;;;;;5029753;28;20240;-82
2023/06/22 11:50:01;;;;;;;2.60;1.10;;;32.20;56.00;;;;;;5036182;28;20195;-83
2023/06/22 11:52:30;;;;;;;1.40;1.15;;;32.30;56.00;;;;;;5039841;28;20221;-82
2023/06/22 11:54:59;;;;;;;1.75;1.30;;;32.30;55.90;;;;;;5029170;28;20192;-82
2023/06/22 11:57:27;;;;;;;0.80;0.68;;;32.30;56.00;;;;;;5038221;28;20724;-81
2023/06/22 11:59:57;;;;;;;1.40;1.30;;;32.20;56.10;;;;;;5048380;28;20206;-82
2023/06/22 12:02:25;;;;;;;1.30;1.15;;;32.30;55.90;;;;;;5041612;28;20213;-82
2023/06/22 12:04:56;;;;;;;1.30;0.90;;;32.40;55.90;;;;;;5084447;27;20230;-83
2023/06/22 12:07:24;;;;;;;1.00;0.80;;;32.50;56.10;;;;;;5030998;27;20659;-82
2023/06/22 12:09:53;;;;;;;0.65;0.60;;;32.60;56.50;;;;;;5033353;28;20677;-83
2023/06/22 12:12:21;;;;;;;0.50;0.50;;;32.60;56.70;;;;;;5027410;28;20219;-82
2023/06/22 12:14:49;;;;;;;1.10;0.70;;;32.60;56.70;;;;;;5055306;28;20220;-83
2023/06/22 12:17:19;;;;;;;1.45;1.05;;;32.50;55.70;;;;;;5041182;28;20195;-83
2023/06/22 12:19:47;;;;;;;0.80;0.70;;;32.50;55.90;;;;;;5052759;28;20205;-83
2023/06/22 12:22:15;;;;;;;1.13;0.93;;;32.40;55.90;;;;;;5044192;27;20199;-83
2023/06/22 12:24:44;;;;;;;2.15;1.35;;;32.40;56.00;;;;;;5049588;28;20194;-83
2023/06/22 12:27:12;;;;;;;2.22;0.70;;;32.40;56.20;;;;;;5043202;28;20654;-83
2023/06/22 12:29:40;;;;;;;0.73;0.52;;;32.40;56.00;;;;;;5055135;27;20247;-83
2023/06/22 12:32:09;;;;;;;1.40;0.93;;;32.40;56.20;;;;;;5047824;28;20727;-83
2023/06/22 12:34:39;;;;;;;1.48;0.75;;;32.40;56.30;;;;;;5064951;27;20610;-83
2023/06/22 12:37:07;;;;;;;1.33;1.23;;;32.50;56.50;;;;;;5042503;28;20206;-83
2023/06/22 12:39:36;;;;;;;0.88;0.60;;;32.40;56.20;;;;;;5052155;28;20198;-82
2023/06/22 12:42:05;;;;;;;1.33;1.23;;;32.50;56.30;;;;;;5047688;28;20191;-83
2023/06/22 12:44:33;;;;;;;1.65;0.90;;;32.60;56.10;;;;;;5042979;28;20202;-83
2023/06/22 12:47:02;;;;;;;2.00;1.15;;;32.70;55.80;;;;;;5042611;28;20201;-83
2023/06/22 12:49:31;;;;;;;11.40;1.90;;;32.80;55.50;;;;;;5046576;28;20191;-81
2023/06/22 12:52:00;;;;;;;1.13;0.93;;;33.00;55.70;;;;;;5051432;28;20214;-82
2023/06/22 12:54:29;;;;;;;1.27;1.05;;;33.20;55.60;;;;;;5047833;28;20707;-81
2023/06/22 12:57:02;;;;;;;1.15;1.02;;;33.40;55.50;;;;;;5050499;27;20669;-83
2023/06/22 12:59:31;;;;;;;1.25;1.15;;;33.60;56.00;;;;;;5059994;28;20201;-82